sensor_id;sensor_type;location;lat;lon;timestamp;P1;durP1;ratioP1;P2;durP2;ratioP2
18647;SDS011;9453;50.294;18.644;2022-10-22T04:01:25;8.60;;;4.70;;
18647;SDS011;9453;50.294;18.644;2022-10-22T04:03:53;7.93;;;4.70;;
18647;SDS011;9453;50.294;18.644;2022-10-22T04:06:20;8.73;;;4.50;;
18647;SDS011;9453;50.294;18.644;2022-10-22T04:08:47;8.03;;;4.50;;
18647;SDS011;9453;50.294;18.644;2022-10-22T04:11:15;7.63;;;4.60;;
18647;SDS011;9453;50.294;18.644;2022-10-22T04:13:42;6.70;;;4.17;;
18647;SDS011;9453;50.294;18.644;2022-10-22T04:16:10;7.97;;;4.23;;
18647;SDS011;9453;50.294;18.644;2022-10-22T04:18:39;10.90;;;4.60;;
18647;SDS011;9453;50.294;18.644;2022-10-22T04:21:07;7.23;;;3.90;;
18647;SDS011;9453;50.294;18.644;2022-10-22T04:23:36;9.73;;;4.93;;
18647;SDS011;9453;50.294;18.644;2022-10-22T04:26:03;7.80;;;4.47;;
18647;SDS011;9453;50.294;18.644;2022-10-22T04:28:32;9.17;;;4.97;;
18647;SDS011;9453;50.294;18.644;2022-10-22T04:31:00;5.93;;;3.70;;
18647;SDS011;9453;50.294;18.644;2022-10-22T04:33:33;5.33;;;3.50;;
18647;SDS011;9453;50.294;18.644;2022-10-22T04:36:06;10.10;;;4.90;;
18647;SDS011;9453;50.294;18.644;2022-10-22T04:38:34;8.60;;;3.80;;
18647;SDS011;9453;50.294;18.644;2022-10-22T04:41:08;8.27;;;4.03;;
18647;SDS011;9453;50.294;18.644;2022-10-22T04:43:36;8.07;;;4.27;;
18647;SDS011;9453;50.294;18.644;2022-10-22T04:46:02;10.50;;;4.70;;
18647;SDS011;9453;50.294;18.644;2022-10-22T04:48:30;10.13;;;4.90;;
18647;SDS011;9453;50.294;18.644;2022-10-22T04:50:57;6.67;;;3.67;;
18647;SDS011;9453;50.294;18.644;2022-10-22T04:53:26;7.27;;;4.00;;
18647;SDS011;9453;50.294;18.644;2022-10-22T04:55:53;6.97;;;4.13;;
18647;SDS011;9453;50.294;18.644;2022-10-22T04:58:20;7.13;;;3.97;;
18647;SDS011;9453;50.294;18.644;2022-10-22T05:00:47;9.33;;;4.53;;
18647;SDS011;9453;50.294;18.644;2022-10-22T05:03:14;9.50;;;4.30;;
18647;SDS011;9453;50.294;18.644;2022-10-22T05:05:41;6.77;;;4.17;;
18647;SDS011;9453;50.294;18.644;2022-10-22T05:08:07;12.43;;;5.57;;
18647;SDS011;9453;50.294;18.644;2022-10-22T05:10:36;10.10;;;5.67;;
18647;SDS011;9453;50.294;18.644;2022-10-22T05:13:03;15.80;;;4.63;;
18647;SDS011;9453;50.294;18.644;2022-10-22T05:15:30;10.77;;;5.43;;
18647;SDS011;9453;50.294;18.644;2022-10-22T05:17:58;11.33;;;5.30;;
18647;SDS011;9453;50.294;18.644;2022-10-22T05:20:25;8.77;;;4.40;;
18647;SDS011;9453;50.294;18.644;2022-10-22T05:22:52;8.47;;;5.23;;
18647;SDS011;9453;50.294;18.644;2022-10-22T05:25:19;10.67;;;5.07;;
18647;SDS011;9453;50.294;18.644;2022-10-22T05:27:49;10.60;;;5.10;;
18647;SDS011;9453;50.294;18.644;2022-10-22T05:30:15;10.73;;;5.67;;
18647;SDS011;9453;50.294;18.644;2022-10-22T05:32:42;10.40;;;5.30;;
18647;SDS011;9453;50.294;18.644;2022-10-22T05:35:09;9.90;;;4.63;;
18647;SDS011;9453;50.294;18.644;2022-10-22T05:37:36;7.83;;;4.40;;
18647;SDS011;9453;50.294;18.644;2022-10-22T05:40:03;9.80;;;4.43;;
18647;SDS011;9453;50.294;18.644;2022-10-22T05:42:31;7.20;;;3.90;;
18647;SDS011;9453;50.294;18.644;2022-10-22T05:44:59;7.77;;;4.70;;
18647;SDS011;9453;50.294;18.644;2022-10-22T05:47:27;9.40;;;3.97;;
18647;SDS011;9453;50.294;18.644;2022-10-22T05:49:54;9.03;;;4.40;;
18647;SDS011;9453;50.294;18.644;2022-10-22T05:52:22;7.17;;;4.00;;
18647;SDS011;9453;50.294;18.644;2022-10-22T05:54:49;7.73;;;4.73;;
18647;SDS011;9453;50.294;18.644;2022-10-22T05:57:16;9.43;;;4.40;;
18647;SDS011;9453;50.294;18.644;2022-10-22T05:59:43;9.43;;;4.03;;
18647;SDS011;9453;50.294;18.644;2022-10-22T06:02:11;7.10;;;3.53;;
18647;SDS011;9453;50.294;18.644;2022-10-22T06:04:37;7.87;;;4.33;;
18647;SDS011;9453;50.294;18.644;2022-10-22T06:07:04;9.57;;;4.60;;
18647;SDS011;9453;50.294;18.644;2022-10-22T06:09:35;7.70;;;4.27;;
18647;SDS011;9453;50.294;18.644;2022-10-22T06:12:03;11.87;;;5.50;;
18647;SDS011;9453;50.294;18.644;2022-10-22T06:14:33;10.87;;;5.37;;
18647;SDS011;9453;50.294;18.644;2022-10-22T06:17:00;10.57;;;5.10;;
18647;SDS011;9453;50.294;18.644;2022-10-22T06:19:28;11.87;;;5.83;;
18647;SDS011;9453;50.294;18.644;2022-10-22T06:21:55;9.37;;;5.67;;
18647;SDS011;9453;50.294;18.644;2022-10-22T06:24:22;7.87;;;4.73;;
18647;SDS011;9453;50.294;18.644;2022-10-22T06:26:49;10.30;;;5.67;;
18647;SDS011;9453;50.294;18.644;2022-10-22T06:29:16;8.47;;;4.30;;
18647;SDS011;9453;50.294;18.644;2022-10-22T06:31:42;7.40;;;4.87;;
18647;SDS011;9453;50.294;18.644;2022-10-22T06:34:11;10.47;;;5.93;;
18647;SDS011;9453;50.294;18.644;2022-10-22T06:36:40;13.03;;;5.00;;
18647;SDS011;9453;50.294;18.644;2022-10-22T06:39:09;10.33;;;5.13;;
18647;SDS011;9453;50.294;18.644;2022-10-22T06:41:37;10.60;;;5.30;;
18647;SDS011;9453;50.294;18.644;2022-10-22T06:44:04;7.87;;;4.43;;
18647;SDS011;9453;50.294;18.644;2022-10-22T06:46:31;12.17;;;5.53;;
18647;SDS011;9453;50.294;18.644;2022-10-22T06:48:58;13.07;;;5.40;;
18647;SDS011;9453;50.294;18.644;2022-10-22T06:51:29;10.73;;;4.40;;
18647;SDS011;9453;50.294;18.644;2022-10-22T06:53:58;8.83;;;4.30;;
18647;SDS011;9453;50.294;18.644;2022-10-22T06:56:26;9.77;;;4.00;;
18647;SDS011;9453;50.294;18.644;2022-10-22T06:58:54;7.17;;;3.80;;
18647;SDS011;9453;50.294;18.644;2022-10-22T07:01:22;6.80;;;4.03;;
18647;SDS011;9453;50.294;18.644;2022-10-22T07:03:52;9.33;;;3.83;;
18647;SDS011;9453;50.294;18.644;2022-10-22T07:06:20;8.00;;;4.53;;
18647;SDS011;9453;50.294;18.644;2022-10-22T07:08:48;8.30;;;4.70;;
18647;SDS011;9453;50.294;18.644;2022-10-22T07:11:18;8.93;;;4.63;;
18647;SDS011;9453;50.294;18.644;2022-10-22T07:13:46;8.40;;;4.63;;
18647;SDS011;9453;50.294;18.644;2022-10-22T07:16:14;8.83;;;4.37;;
18647;SDS011;9453;50.294;18.644;2022-10-22T07:18:43;7.10;;;4.20;;
18647;SDS011;9453;50.294;18.644;2022-10-22T07:21:10;8.87;;;4.93;;
18647;SDS011;9453;50.294;18.644;2022-10-22T07:23:38;8.63;;;5.17;;
18647;SDS011;9453;50.294;18.644;2022-10-22T07:26:06;9.93;;;4.83;;
18647;SDS011;9453;50.294;18.644;2022-10-22T07:31:24;8.57;;;4.73;;
18647;SDS011;9453;50.294;18.644;2022-10-22T07:33:51;9.70;;;5.30;;
18647;SDS011;9453;50.294;18.644;2022-10-22T07:36:18;10.93;;;5.40;;
18647;SDS011;9453;50.294;18.644;2022-10-22T07:38:45;9.73;;;4.47;;
18647;SDS011;9453;50.294;18.644;2022-10-22T07:41:15;11.50;;;6.13;;
18647;SDS011;9453;50.294;18.644;2022-10-22T07:43:42;8.73;;;4.70;;
18647;SDS011;9453;50.294;18.644;2022-10-22T07:46:11;10.27;;;4.53;;
18647;SDS011;9453;50.294;18.644;2022-10-22T07:48:38;9.83;;;4.80;;
18647;SDS011;9453;50.294;18.644;2022-10-22T07:51:05;9.35;;;4.63;;
18647;SDS011;9453;50.294;18.644;2022-10-22T07:53:32;9.13;;;5.17;;
18647;SDS011;9453;50.294;18.644;2022-10-22T07:56:00;10.18;;;5.90;;
18647;SDS011;9453;50.294;18.644;2022-10-22T07:58:26;11.93;;;6.17;;
18647;SDS011;9453;50.294;18.644;2022-10-22T08:00:54;8.73;;;5.15;;
18647;SDS011;9453;50.294;18.644;2022-10-22T08:03:26;9.55;;;5.07;;
18647;SDS011;9453;50.294;18.644;2022-10-22T08:05:53;10.93;;;5.20;;
18647;SDS011;9453;50.294;18.644;2022-10-22T08:08:20;9.13;;;4.63;;
18647;SDS011;9453;50.294;18.644;2022-10-22T08:10:49;11.60;;;5.40;;
18647;SDS011;9453;50.294;18.644;2022-10-22T08:13:18;9.23;;;5.07;;
18647;SDS011;9453;50.294;18.644;2022-10-22T08:15:45;10.95;;;6.40;;
18647;SDS011;9453;50.294;18.644;2022-10-22T08:18:12;9.73;;;5.35;;
18647;SDS011;9453;50.294;18.644;2022-10-22T08:20:40;9.98;;;4.63;;
18647;SDS011;9453;50.294;18.644;2022-10-22T08:23:08;10.93;;;4.80;;
18647;SDS011;9453;50.294;18.644;2022-10-22T08:25:34;10.57;;;5.53;;
18647;SDS011;9453;50.294;18.644;2022-10-22T08:28:01;10.68;;;5.47;;
18647;SDS011;9453;50.294;18.644;2022-10-22T08:30:29;11.00;;;5.47;;
18647;SDS011;9453;50.294;18.644;2022-10-22T08:32:57;14.95;;;5.18;;
18647;SDS011;9453;50.294;18.644;2022-10-22T08:35:25;8.73;;;4.80;;
18647;SDS011;9453;50.294;18.644;2022-10-22T08:37:53;8.60;;;4.53;;
18647;SDS011;9453;50.294;18.644;2022-10-22T08:40:22;10.50;;;5.10;;
18647;SDS011;9453;50.294;18.644;2022-10-22T08:42:59;10.73;;;5.13;;
18647;SDS011;9453;50.294;18.644;2022-10-22T08:45:48;13.70;;;6.15;;
18647;SDS011;9453;50.294;18.644;2022-10-22T08:48:30;11.40;;;4.95;;
18647;SDS011;9453;50.294;18.644;2022-10-22T08:51:07;10.65;;;5.47;;
18647;SDS011;9453;50.294;18.644;2022-10-22T08:53:40;11.40;;;5.40;;
18647;SDS011;9453;50.294;18.644;2022-10-22T08:56:15;9.90;;;5.47;;
18647;SDS011;9453;50.294;18.644;2022-10-22T08:58:43;9.48;;;5.13;;
18647;SDS011;9453;50.294;18.644;2022-10-22T09:01:16;8.75;;;5.53;;
18647;SDS011;9453;50.294;18.644;2022-10-22T09:03:48;10.45;;;5.57;;
18647;SDS011;9453;50.294;18.644;2022-10-22T09:06:18;9.38;;;4.85;;
18647;SDS011;9453;50.294;18.644;2022-10-22T09:08:50;8.65;;;4.50;;
18647;SDS011;9453;50.294;18.644;2022-10-22T09:11:21;12.10;;;5.85;;
18647;SDS011;9453;50.294;18.644;2022-10-22T09:13:50;11.60;;;5.88;;
18647;SDS011;9453;50.294;18.644;2022-10-22T09:16:20;14.77;;;5.85;;
18647;SDS011;9453;50.294;18.644;2022-10-22T09:18:59;10.30;;;5.60;;
18647;SDS011;9453;50.294;18.644;2022-10-22T09:21:36;10.45;;;5.90;;
18647;SDS011;9453;50.294;18.644;2022-10-22T09:24:10;10.57;;;5.85;;
18647;SDS011;9453;50.294;18.644;2022-10-22T09:26:40;12.90;;;5.45;;
18647;SDS011;9453;50.294;18.644;2022-10-22T09:29:12;11.75;;;5.60;;
18647;SDS011;9453;50.294;18.644;2022-10-22T09:31:44;14.15;;;6.20;;
18647;SDS011;9453;50.294;18.644;2022-10-22T09:34:13;9.60;;;5.38;;
18647;SDS011;9453;50.294;18.644;2022-10-22T09:36:40;13.85;;;6.63;;
18647;SDS011;9453;50.294;18.644;2022-10-22T09:39:21;11.48;;;5.82;;
18647;SDS011;9453;50.294;18.644;2022-10-22T09:41:50;12.07;;;6.47;;
18647;SDS011;9453;50.294;18.644;2022-10-22T09:44:17;13.52;;;6.65;;
18647;SDS011;9453;50.294;18.644;2022-10-22T09:46:45;15.52;;;6.68;;
18647;SDS011;9453;50.294;18.644;2022-10-22T09:49:13;12.57;;;6.78;;
18647;SDS011;9453;50.294;18.644;2022-10-22T09:51:47;12.10;;;6.63;;
18647;SDS011;9453;50.294;18.644;2022-10-22T09:54:16;15.40;;;6.30;;
18647;SDS011;9453;50.294;18.644;2022-10-22T09:56:56;12.98;;;6.20;;
18647;SDS011;9453;50.294;18.644;2022-10-22T09:59:29;13.70;;;7.13;;
18647;SDS011;9453;50.294;18.644;2022-10-22T10:01:59;18.92;;;6.65;;
18647;SDS011;9453;50.294;18.644;2022-10-22T10:04:32;12.52;;;6.72;;
18647;SDS011;9453;50.294;18.644;2022-10-22T10:07:00;12.60;;;6.38;;
18647;SDS011;9453;50.294;18.644;2022-10-22T10:09:28;11.95;;;5.45;;
18647;SDS011;9453;50.294;18.644;2022-10-22T10:12:03;11.13;;;6.32;;
18647;SDS011;9453;50.294;18.644;2022-10-22T10:14:45;13.80;;;6.70;;
18647;SDS011;9453;50.294;18.644;2022-10-22T10:17:21;12.27;;;5.95;;
18647;SDS011;9453;50.294;18.644;2022-10-22T10:19:58;10.02;;;5.00;;
18647;SDS011;9453;50.294;18.644;2022-10-22T10:22:37;13.45;;;6.72;;
18647;SDS011;9453;50.294;18.644;2022-10-22T10:25:26;11.30;;;6.00;;
18647;SDS011;9453;50.294;18.644;2022-10-22T10:28:08;14.30;;;7.28;;
18647;SDS011;9453;50.294;18.644;2022-10-22T10:30:47;13.32;;;5.63;;
18647;SDS011;9453;50.294;18.644;2022-10-22T10:33:27;12.50;;;6.53;;
18647;SDS011;9453;50.294;18.644;2022-10-22T10:36:05;10.60;;;5.88;;
18647;SDS011;9453;50.294;18.644;2022-10-22T10:38:38;17.38;;;7.18;;
18647;SDS011;9453;50.294;18.644;2022-10-22T10:41:16;10.75;;;5.95;;
18647;SDS011;9453;50.294;18.644;2022-10-22T10:43:52;12.73;;;5.57;;
18647;SDS011;9453;50.294;18.644;2022-10-22T10:46:30;10.10;;;5.70;;
18647;SDS011;9453;50.294;18.644;2022-10-22T10:49:07;11.68;;;6.80;;
18647;SDS011;9453;50.294;18.644;2022-10-22T10:51:44;15.68;;;7.43;;
18647;SDS011;9453;50.294;18.644;2022-10-22T10:54:24;16.02;;;7.18;;
18647;SDS011;9453;50.294;18.644;2022-10-22T10:57:01;9.60;;;5.47;;
18647;SDS011;9453;50.294;18.644;2022-10-22T10:59:38;12.35;;;6.57;;
18647;SDS011;9453;50.294;18.644;2022-10-22T11:05:27;12.32;;;6.95;;
18647;SDS011;9453;50.294;18.644;2022-10-22T11:08:00;10.43;;;5.38;;
18647;SDS011;9453;50.294;18.644;2022-10-22T11:10:31;12.45;;;6.88;;
18647;SDS011;9453;50.294;18.644;2022-10-22T11:13:05;11.88;;;6.78;;
18647;SDS011;9453;50.294;18.644;2022-10-22T11:15:39;15.27;;;7.78;;
18647;SDS011;9453;50.294;18.644;2022-10-22T11:18:12;20.05;;;9.05;;
18647;SDS011;9453;50.294;18.644;2022-10-22T11:20:47;18.58;;;8.13;;
18647;SDS011;9453;50.294;18.644;2022-10-22T11:23:24;21.05;;;8.18;;
18647;SDS011;9453;50.294;18.644;2022-10-22T11:25:55;15.95;;;8.13;;
18647;SDS011;9453;50.294;18.644;2022-10-22T11:28:24;15.88;;;7.65;;
18647;SDS011;9453;50.294;18.644;2022-10-22T11:30:58;14.60;;;6.93;;
18647;SDS011;9453;50.294;18.644;2022-10-22T11:33:28;14.93;;;8.20;;
18647;SDS011;9453;50.294;18.644;2022-10-22T11:36:03;16.98;;;7.20;;
18647;SDS011;9453;50.294;18.644;2022-10-22T11:38:32;13.80;;;6.82;;
18647;SDS011;9453;50.294;18.644;2022-10-22T11:41:01;15.07;;;6.47;;
18647;SDS011;9453;50.294;18.644;2022-10-22T11:43:31;11.88;;;6.28;;
18647;SDS011;9453;50.294;18.644;2022-10-22T11:46:05;19.20;;;9.05;;
18647;SDS011;9453;50.294;18.644;2022-10-22T11:48:59;15.55;;;7.93;;
18647;SDS011;9453;50.294;18.644;2022-10-22T11:51:29;16.23;;;8.55;;
18647;SDS011;9453;50.294;18.644;2022-10-22T11:54:00;15.25;;;8.00;;
18647;SDS011;9453;50.294;18.644;2022-10-22T11:56:47;12.60;;;7.38;;
18647;SDS011;9453;50.294;18.644;2022-10-22T11:59:37;15.88;;;7.55;;
18647;SDS011;9453;50.294;18.644;2022-10-22T12:08:20;17.38;;;8.77;;
18647;SDS011;9453;50.294;18.644;2022-10-22T12:10:54;14.48;;;8.20;;
18647;SDS011;9453;50.294;18.644;2022-10-22T12:13:26;19.13;;;9.23;;
18647;SDS011;9453;50.294;18.644;2022-10-22T12:15:56;15.90;;;8.90;;
18647;SDS011;9453;50.294;18.644;2022-10-22T12:18:25;20.30;;;10.02;;
18647;SDS011;9453;50.294;18.644;2022-10-22T12:20:56;16.50;;;8.40;;
18647;SDS011;9453;50.294;18.644;2022-10-22T12:23:25;20.40;;;9.15;;
18647;SDS011;9453;50.294;18.644;2022-10-22T12:25:56;18.55;;;9.70;;
18647;SDS011;9453;50.294;18.644;2022-10-22T12:28:23;23.17;;;9.55;;
18647;SDS011;9453;50.294;18.644;2022-10-22T12:30:50;19.00;;;9.95;;
18647;SDS011;9453;50.294;18.644;2022-10-22T12:33:18;23.40;;;10.20;;
18647;SDS011;9453;50.294;18.644;2022-10-22T12:35:46;19.95;;;10.07;;
18647;SDS011;9453;50.294;18.644;2022-10-22T12:38:17;17.75;;;9.35;;
18647;SDS011;9453;50.294;18.644;2022-10-22T12:40:48;16.15;;;8.80;;
18647;SDS011;9453;50.294;18.644;2022-10-22T12:43:16;18.45;;;9.55;;
18647;SDS011;9453;50.294;18.644;2022-10-22T12:45:45;17.40;;;9.23;;
18647;SDS011;9453;50.294;18.644;2022-10-22T12:48:14;20.17;;;10.13;;
18647;SDS011;9453;50.294;18.644;2022-10-22T12:50:44;18.83;;;9.52;;
18647;SDS011;9453;50.294;18.644;2022-10-22T12:53:16;13.05;;;8.05;;
18647;SDS011;9453;50.294;18.644;2022-10-22T12:55:48;19.15;;;9.70;;
18647;SDS011;9453;50.294;18.644;2022-10-22T12:58:18;16.55;;;8.25;;
18647;SDS011;9453;50.294;18.644;2022-10-22T13:00:47;19.55;;;9.32;;
18647;SDS011;9453;50.294;18.644;2022-10-22T13:03:25;19.73;;;9.80;;
18647;SDS011;9453;50.294;18.644;2022-10-22T13:05:54;20.70;;;9.98;;
18647;SDS011;9453;50.294;18.644;2022-10-22T13:08:22;17.23;;;8.15;;
18647;SDS011;9453;50.294;18.644;2022-10-22T13:10:54;16.98;;;8.13;;
18647;SDS011;9453;50.294;18.644;2022-10-22T13:13:28;20.10;;;9.73;;
18647;SDS011;9453;50.294;18.644;2022-10-22T13:16:11;19.77;;;10.40;;
18647;SDS011;9453;50.294;18.644;2022-10-22T13:18:42;22.90;;;9.60;;
18647;SDS011;9453;50.294;18.644;2022-10-22T13:21:20;19.90;;;8.95;;
18647;SDS011;9453;50.294;18.644;2022-10-22T13:23:53;20.00;;;9.52;;
18647;SDS011;9453;50.294;18.644;2022-10-22T13:26:28;17.67;;;9.05;;
18647;SDS011;9453;50.294;18.644;2022-10-22T13:28:57;17.08;;;9.18;;
18647;SDS011;9453;50.294;18.644;2022-10-22T13:31:27;17.25;;;9.10;;
18647;SDS011;9453;50.294;18.644;2022-10-22T13:33:58;18.92;;;10.20;;
18647;SDS011;9453;50.294;18.644;2022-10-22T13:36:27;19.70;;;10.13;;
18647;SDS011;9453;50.294;18.644;2022-10-22T13:38:54;21.63;;;10.70;;
18647;SDS011;9453;50.294;18.644;2022-10-22T13:41:22;24.35;;;10.23;;
18647;SDS011;9453;50.294;18.644;2022-10-22T13:43:53;18.95;;;9.60;;
18647;SDS011;9453;50.294;18.644;2022-10-22T13:46:21;14.77;;;7.97;;
18647;SDS011;9453;50.294;18.644;2022-10-22T13:48:49;17.00;;;8.93;;
18647;SDS011;9453;50.294;18.644;2022-10-22T13:51:20;18.92;;;8.32;;
18647;SDS011;9453;50.294;18.644;2022-10-22T13:53:51;15.75;;;7.95;;
18647;SDS011;9453;50.294;18.644;2022-10-22T13:56:20;18.15;;;9.10;;
18647;SDS011;9453;50.294;18.644;2022-10-22T13:58:49;20.67;;;9.27;;
18647;SDS011;9453;50.294;18.644;2022-10-22T14:01:17;20.40;;;9.83;;
18647;SDS011;9453;50.294;18.644;2022-10-22T14:03:47;20.63;;;9.90;;
18647;SDS011;9453;50.294;18.644;2022-10-22T14:06:16;19.30;;;9.15;;
18647;SDS011;9453;50.294;18.644;2022-10-22T14:08:44;16.47;;;8.70;;
18647;SDS011;9453;50.294;18.644;2022-10-22T14:11:14;19.65;;;10.23;;
18647;SDS011;9453;50.294;18.644;2022-10-22T14:13:42;19.20;;;9.33;;
18647;SDS011;9453;50.294;18.644;2022-10-22T14:16:12;18.67;;;9.18;;
18647;SDS011;9453;50.294;18.644;2022-10-22T14:18:43;20.75;;;9.50;;
18647;SDS011;9453;50.294;18.644;2022-10-22T14:21:10;19.20;;;9.95;;
18647;SDS011;9453;50.294;18.644;2022-10-22T14:23:39;19.02;;;9.30;;
18647;SDS011;9453;50.294;18.644;2022-10-22T14:26:08;17.90;;;8.50;;
18647;SDS011;9453;50.294;18.644;2022-10-22T14:28:44;14.57;;;7.85;;
18647;SDS011;9453;50.294;18.644;2022-10-22T14:31:13;16.27;;;8.80;;
18647;SDS011;9453;50.294;18.644;2022-10-22T14:33:41;18.57;;;8.30;;
18647;SDS011;9453;50.294;18.644;2022-10-22T14:36:08;22.57;;;10.93;;
18647;SDS011;9453;50.294;18.644;2022-10-22T14:38:38;19.77;;;11.02;;
18647;SDS011;9453;50.294;18.644;2022-10-22T14:41:09;27.65;;;11.38;;
18647;SDS011;9453;50.294;18.644;2022-10-22T14:43:41;23.77;;;11.13;;
18647;SDS011;9453;50.294;18.644;2022-10-22T14:46:09;18.70;;;9.63;;
18647;SDS011;9453;50.294;18.644;2022-10-22T14:48:39;17.37;;;9.30;;
18647;SDS011;9453;50.294;18.644;2022-10-22T14:51:06;26.67;;;11.50;;
18647;SDS011;9453;50.294;18.644;2022-10-22T14:53:36;42.33;;;17.83;;
18647;SDS011;9453;50.294;18.644;2022-10-22T14:56:03;38.65;;;17.35;;
18647;SDS011;9453;50.294;18.644;2022-10-22T14:58:30;40.17;;;17.30;;
18647;SDS011;9453;50.294;18.644;2022-10-22T15:01:00;48.85;;;21.85;;
18647;SDS011;9453;50.294;18.644;2022-10-22T15:03:27;41.23;;;20.00;;
18647;SDS011;9453;50.294;18.644;2022-10-22T15:05:55;36.00;;;16.27;;
18647;SDS011;9453;50.294;18.644;2022-10-22T15:08:22;34.67;;;17.13;;
18647;SDS011;9453;50.294;18.644;2022-10-22T15:10:57;64.90;;;28.93;;
18647;SDS011;9453;50.294;18.644;2022-10-22T15:13:26;64.40;;;30.10;;
18647;SDS011;9453;50.294;18.644;2022-10-22T15:15:53;57.13;;;25.17;;
18647;SDS011;9453;50.294;18.644;2022-10-22T15:18:20;51.27;;;22.53;;
18647;SDS011;9453;50.294;18.644;2022-10-22T15:20:53;38.67;;;17.93;;
18647;SDS011;9453;50.294;18.644;2022-10-22T15:23:22;41.88;;;19.48;;
18647;SDS011;9453;50.294;18.644;2022-10-22T15:25:49;33.10;;;16.17;;
18647;SDS011;9453;50.294;18.644;2022-10-22T15:28:16;39.17;;;17.93;;
18647;SDS011;9453;50.294;18.644;2022-10-22T15:30:43;36.73;;;17.10;;
18647;SDS011;9453;50.294;18.644;2022-10-22T15:33:10;56.93;;;20.13;;
18647;SDS011;9453;50.294;18.644;2022-10-22T15:35:37;44.03;;;20.73;;
18647;SDS011;9453;50.294;18.644;2022-10-22T15:38:05;50.13;;;20.57;;
18647;SDS011;9453;50.294;18.644;2022-10-22T15:40:33;36.00;;;17.13;;
18647;SDS011;9453;50.294;18.644;2022-10-22T15:43:00;36.55;;;16.20;;
18647;SDS011;9453;50.294;18.644;2022-10-22T15:45:27;37.27;;;17.27;;
18647;SDS011;9453;50.294;18.644;2022-10-22T15:47:54;37.03;;;18.27;;
18647;SDS011;9453;50.294;18.644;2022-10-22T15:50:21;38.80;;;18.00;;
18647;SDS011;9453;50.294;18.644;2022-10-22T15:52:47;28.93;;;14.63;;
18647;SDS011;9453;50.294;18.644;2022-10-22T15:55:16;26.70;;;14.30;;
18647;SDS011;9453;50.294;18.644;2022-10-22T15:57:43;36.07;;;15.93;;
18647;SDS011;9453;50.294;18.644;2022-10-22T16:00:10;29.37;;;15.57;;
18647;SDS011;9453;50.294;18.644;2022-10-22T16:02:38;30.17;;;14.03;;
18647;SDS011;9453;50.294;18.644;2022-10-22T16:05:05;23.30;;;12.53;;
18647;SDS011;9453;50.294;18.644;2022-10-22T16:07:32;24.97;;;13.03;;
18647;SDS011;9453;50.294;18.644;2022-10-22T16:09:59;26.77;;;13.43;;
18647;SDS011;9453;50.294;18.644;2022-10-22T16:12:28;29.43;;;13.80;;
18647;SDS011;9453;50.294;18.644;2022-10-22T16:14:54;27.70;;;13.20;;
18647;SDS011;9453;50.294;18.644;2022-10-22T16:17:21;25.57;;;12.77;;
18647;SDS011;9453;50.294;18.644;2022-10-22T16:19:48;37.77;;;18.47;;
18647;SDS011;9453;50.294;18.644;2022-10-22T16:22:15;36.10;;;17.50;;
18647;SDS011;9453;50.294;18.644;2022-10-22T16:24:42;33.97;;;15.73;;
18647;SDS011;9453;50.294;18.644;2022-10-22T16:27:09;33.07;;;16.07;;
18647;SDS011;9453;50.294;18.644;2022-10-22T16:29:37;30.23;;;15.03;;
18647;SDS011;9453;50.294;18.644;2022-10-22T16:32:05;31.63;;;15.50;;
18647;SDS011;9453;50.294;18.644;2022-10-22T16:34:32;25.67;;;13.17;;
18647;SDS011;9453;50.294;18.644;2022-10-22T16:36:59;26.23;;;13.23;;
18647;SDS011;9453;50.294;18.644;2022-10-22T16:39:26;31.27;;;15.10;;
18647;SDS011;9453;50.294;18.644;2022-10-22T16:41:53;32.73;;;15.30;;
18647;SDS011;9453;50.294;18.644;2022-10-22T16:44:20;24.57;;;13.67;;
18647;SDS011;9453;50.294;18.644;2022-10-22T16:46:49;27.90;;;14.43;;
18647;SDS011;9453;50.294;18.644;2022-10-22T16:49:16;25.97;;;14.27;;
18647;SDS011;9453;50.294;18.644;2022-10-22T16:51:42;32.93;;;16.07;;
18647;SDS011;9453;50.294;18.644;2022-10-22T16:54:10;36.93;;;17.47;;
18647;SDS011;9453;50.294;18.644;2022-10-22T16:56:37;31.80;;;14.57;;
18647;SDS011;9453;50.294;18.644;2022-10-22T16:59:04;25.87;;;13.77;;
18647;SDS011;9453;50.294;18.644;2022-10-22T17:01:32;30.07;;;13.13;;
18647;SDS011;9453;50.294;18.644;2022-10-22T17:04:00;24.60;;;12.93;;
18647;SDS011;9453;50.294;18.644;2022-10-22T17:06:27;23.73;;;12.20;;
18647;SDS011;9453;50.294;18.644;2022-10-22T17:08:54;24.97;;;12.60;;
18647;SDS011;9453;50.294;18.644;2022-10-22T17:11:23;22.93;;;11.80;;
18647;SDS011;9453;50.294;18.644;2022-10-22T17:13:51;23.87;;;12.17;;
18647;SDS011;9453;50.294;18.644;2022-10-22T17:16:19;29.33;;;14.33;;
18647;SDS011;9453;50.294;18.644;2022-10-22T17:18:48;29.60;;;13.90;;
18647;SDS011;9453;50.294;18.644;2022-10-22T17:21:17;31.27;;;13.93;;
18647;SDS011;9453;50.294;18.644;2022-10-22T17:23:45;33.60;;;15.03;;
18647;SDS011;9453;50.294;18.644;2022-10-22T17:26:14;27.53;;;13.30;;
18647;SDS011;9453;50.294;18.644;2022-10-22T17:28:42;25.77;;;13.47;;
18647;SDS011;9453;50.294;18.644;2022-10-22T17:31:14;29.87;;;15.57;;
18647;SDS011;9453;50.294;18.644;2022-10-22T17:33:42;26.40;;;13.70;;
18647;SDS011;9453;50.294;18.644;2022-10-22T17:36:10;27.43;;;13.80;;
18647;SDS011;9453;50.294;18.644;2022-10-22T17:38:40;24.43;;;13.00;;
18647;SDS011;9453;50.294;18.644;2022-10-22T17:41:08;26.63;;;14.47;;
18647;SDS011;9453;50.294;18.644;2022-10-22T17:43:41;27.43;;;14.50;;
18647;SDS011;9453;50.294;18.644;2022-10-22T17:46:09;24.53;;;13.13;;
18647;SDS011;9453;50.294;18.644;2022-10-22T17:48:42;26.07;;;13.93;;
18647;SDS011;9453;50.294;18.644;2022-10-22T17:51:10;31.40;;;15.23;;
18647;SDS011;9453;50.294;18.644;2022-10-22T17:53:40;36.57;;;17.03;;
18647;SDS011;9453;50.294;18.644;2022-10-22T17:56:09;35.57;;;17.30;;
18647;SDS011;9453;50.294;18.644;2022-10-22T17:58:40;34.00;;;16.93;;
18647;SDS011;9453;50.294;18.644;2022-10-22T18:01:14;35.30;;;16.40;;
18647;SDS011;9453;50.294;18.644;2022-10-22T18:03:42;30.63;;;15.27;;
18647;SDS011;9453;50.294;18.644;2022-10-22T18:06:09;31.20;;;16.07;;
18647;SDS011;9453;50.294;18.644;2022-10-22T18:08:36;48.27;;;20.83;;
18647;SDS011;9453;50.294;18.644;2022-10-22T18:11:08;36.67;;;17.17;;
18647;SDS011;9453;50.294;18.644;2022-10-22T18:13:36;37.03;;;17.10;;
18647;SDS011;9453;50.294;18.644;2022-10-22T18:16:04;34.03;;;16.10;;
18647;SDS011;9453;50.294;18.644;2022-10-22T18:18:31;36.07;;;16.97;;
18647;SDS011;9453;50.294;18.644;2022-10-22T18:20:59;30.27;;;15.27;;
18647;SDS011;9453;50.294;18.644;2022-10-22T18:23:27;32.43;;;16.43;;
18647;SDS011;9453;50.294;18.644;2022-10-22T18:25:54;32.17;;;16.00;;
18647;SDS011;9453;50.294;18.644;2022-10-22T18:28:22;29.77;;;15.40;;
18647;SDS011;9453;50.294;18.644;2022-10-22T18:30:49;25.00;;;13.60;;
18647;SDS011;9453;50.294;18.644;2022-10-22T18:33:17;25.23;;;13.13;;
18647;SDS011;9453;50.294;18.644;2022-10-22T18:35:48;27.63;;;13.30;;
18647;SDS011;9453;50.294;18.644;2022-10-22T18:38:16;23.10;;;12.37;;
18647;SDS011;9453;50.294;18.644;2022-10-22T18:40:46;25.23;;;14.27;;
18647;SDS011;9453;50.294;18.644;2022-10-22T18:43:14;30.47;;;14.30;;
18647;SDS011;9453;50.294;18.644;2022-10-22T18:45:43;30.67;;;14.97;;
18647;SDS011;9453;50.294;18.644;2022-10-22T18:48:13;26.70;;;14.80;;
18647;SDS011;9453;50.294;18.644;2022-10-22T18:50:41;28.10;;;14.77;;
18647;SDS011;9453;50.294;18.644;2022-10-22T18:53:08;24.07;;;12.80;;
18647;SDS011;9453;50.294;18.644;2022-10-22T18:55:36;30.37;;;15.80;;
18647;SDS011;9453;50.294;18.644;2022-10-22T18:58:04;31.13;;;15.07;;
18647;SDS011;9453;50.294;18.644;2022-10-22T19:00:30;29.57;;;15.23;;